sensor_id;sensor_type;location;lat;lon;timestamp;P1;durP1;ratioP1;P2;durP2;ratioP2
20110;SDS011;10216;42.658;23.248;2023-04-21T00:00:18;3.03;;;1.70;;
20110;SDS011;10216;42.658;23.248;2023-04-21T00:02:43;3.63;;;2.43;;
20110;SDS011;10216;42.658;23.248;2023-04-21T00:05:10;4.90;;;2.10;;
20110;SDS011;10216;42.658;23.248;2023-04-21T00:07:37;2.43;;;1.90;;
20110;SDS011;10216;42.658;23.248;2023-04-21T00:10:06;8.60;;;3.10;;
20110;SDS011;10216;42.658;23.248;2023-04-21T00:12:32;3.87;;;2.37;;
20110;SDS011;10216;42.658;23.248;2023-04-21T00:14:57;3.17;;;2.37;;
20110;SDS011;10216;42.658;23.248;2023-04-21T00:17:22;2.97;;;2.33;;
20110;SDS011;10216;42.658;23.248;2023-04-21T00:19:48;2.80;;;2.33;;
20110;SDS011;10216;42.658;23.248;2023-04-21T00:22:13;4.50;;;2.57;;
20110;SDS011;10216;42.658;23.248;2023-04-21T00:24:39;3.23;;;2.30;;
20110;SDS011;10216;42.658;23.248;2023-04-21T00:27:04;3.30;;;2.60;;
20110;SDS011;10216;42.658;23.248;2023-04-21T00:29:29;4.87;;;2.80;;
20110;SDS011;10216;42.658;23.248;2023-04-21T00:31:55;3.13;;;2.40;;
20110;SDS011;10216;42.658;23.248;2023-04-21T00:34:20;4.67;;;2.10;;
20110;SDS011;10216;42.658;23.248;2023-04-21T00:36:45;3.40;;;2.00;;
20110;SDS011;10216;42.658;23.248;2023-04-21T00:39:11;2.47;;;2.03;;
20110;SDS011;10216;42.658;23.248;2023-04-21T00:41:36;3.03;;;2.27;;
20110;SDS011;10216;42.658;23.248;2023-04-21T00:44:06;2.37;;;2.00;;
20110;SDS011;10216;42.658;23.248;2023-04-21T00:46:32;2.53;;;2.10;;
20110;SDS011;10216;42.658;23.248;2023-04-21T00:48:57;2.63;;;2.43;;
20110;SDS011;10216;42.658;23.248;2023-04-21T00:51:23;3.33;;;2.27;;
20110;SDS011;10216;42.658;23.248;2023-04-21T00:53:49;2.43;;;1.90;;
20110;SDS011;10216;42.658;23.248;2023-04-21T00:56:14;2.30;;;1.70;;
20110;SDS011;10216;42.658;23.248;2023-04-21T00:58:42;3.53;;;2.03;;
20110;SDS011;10216;42.658;23.248;2023-04-21T01:01:08;2.37;;;1.90;;
20110;SDS011;10216;42.658;23.248;2023-04-21T01:03:33;2.47;;;1.70;;
20110;SDS011;10216;42.658;23.248;2023-04-21T01:05:59;2.57;;;1.97;;
20110;SDS011;10216;42.658;23.248;2023-04-21T01:08:25;2.60;;;2.17;;
20110;SDS011;10216;42.658;23.248;2023-04-21T01:10:51;2.30;;;1.83;;
20110;SDS011;10216;42.658;23.248;2023-04-21T01:13:18;2.20;;;1.57;;
20110;SDS011;10216;42.658;23.248;2023-04-21T01:15:43;3.87;;;2.40;;
20110;SDS011;10216;42.658;23.248;2023-04-21T01:18:08;2.13;;;1.83;;
20110;SDS011;10216;42.658;23.248;2023-04-21T01:20:34;3.67;;;2.20;;
20110;SDS011;10216;42.658;23.248;2023-04-21T01:23:00;2.33;;;2.13;;
20110;SDS011;10216;42.658;23.248;2023-04-21T01:25:25;3.93;;;2.00;;
20110;SDS011;10216;42.658;23.248;2023-04-21T01:27:52;2.30;;;1.87;;
20110;SDS011;10216;42.658;23.248;2023-04-21T01:30:17;2.47;;;1.83;;
20110;SDS011;10216;42.658;23.248;2023-04-21T01:32:42;6.50;;;2.13;;
20110;SDS011;10216;42.658;23.248;2023-04-21T01:35:08;2.47;;;1.70;;
20110;SDS011;10216;42.658;23.248;2023-04-21T01:37:33;2.10;;;1.90;;
20110;SDS011;10216;42.658;23.248;2023-04-21T01:39:59;3.63;;;2.07;;
20110;SDS011;10216;42.658;23.248;2023-04-21T01:42:25;3.07;;;1.83;;
20110;SDS011;10216;42.658;23.248;2023-04-21T01:44:51;4.20;;;2.40;;
20110;SDS011;10216;42.658;23.248;2023-04-21T01:47:17;2.63;;;2.10;;
20110;SDS011;10216;42.658;23.248;2023-04-21T01:49:43;2.20;;;1.90;;
20110;SDS011;10216;42.658;23.248;2023-04-21T01:52:08;3.50;;;1.93;;
20110;SDS011;10216;42.658;23.248;2023-04-21T01:54:34;3.37;;;2.33;;
20110;SDS011;10216;42.658;23.248;2023-04-21T01:56:59;2.33;;;2.00;;
20110;SDS011;10216;42.658;23.248;2023-04-21T01:59:25;2.23;;;1.97;;
20110;SDS011;10216;42.658;23.248;2023-04-21T02:01:51;2.23;;;1.93;;
20110;SDS011;10216;42.658;23.248;2023-04-21T02:04:16;2.30;;;2.00;;
20110;SDS011;10216;42.658;23.248;2023-04-21T02:06:41;2.17;;;1.97;;
20110;SDS011;10216;42.658;23.248;2023-04-21T02:09:06;2.10;;;1.90;;
20110;SDS011;10216;42.658;23.248;2023-04-21T02:11:32;5.23;;;2.60;;
20110;SDS011;10216;42.658;23.248;2023-04-21T02:13:57;2.90;;;2.00;;
20110;SDS011;10216;42.658;23.248;2023-04-21T02:16:25;2.27;;;2.07;;
20110;SDS011;10216;42.658;23.248;2023-04-21T02:18:51;3.43;;;2.07;;
20110;SDS011;10216;42.658;23.248;2023-04-21T02:21:16;3.07;;;2.07;;
20110;SDS011;10216;42.658;23.248;2023-04-21T02:23:41;2.77;;;2.17;;
20110;SDS011;10216;42.658;23.248;2023-04-21T02:26:06;3.83;;;2.13;;
20110;SDS011;10216;42.658;23.248;2023-04-21T02:28:32;2.80;;;1.97;;
20110;SDS011;10216;42.658;23.248;2023-04-21T02:30:57;2.90;;;2.07;;
20110;SDS011;10216;42.658;23.248;2023-04-21T02:33:22;4.00;;;2.67;;
20110;SDS011;10216;42.658;23.248;2023-04-21T02:35:47;2.57;;;2.13;;
20110;SDS011;10216;42.658;23.248;2023-04-21T02:38:13;2.47;;;2.03;;
20110;SDS011;10216;42.658;23.248;2023-04-21T02:40:38;2.67;;;2.00;;
20110;SDS011;10216;42.658;23.248;2023-04-21T02:43:03;3.40;;;2.40;;
20110;SDS011;10216;42.658;23.248;2023-04-21T02:45:28;3.03;;;2.37;;
20110;SDS011;10216;42.658;23.248;2023-04-21T02:47:54;3.27;;;2.50;;
20110;SDS011;10216;42.658;23.248;2023-04-21T02:50:19;2.40;;;2.20;;
20110;SDS011;10216;42.658;23.248;2023-04-21T02:52:44;2.30;;;2.10;;
20110;SDS011;10216;42.658;23.248;2023-04-21T02:55:10;3.20;;;2.17;;
20110;SDS011;10216;42.658;23.248;2023-04-21T02:57:35;2.50;;;1.77;;
20110;SDS011;10216;42.658;23.248;2023-04-21T03:00:00;2.73;;;2.30;;
20110;SDS011;10216;42.658;23.248;2023-04-21T03:02:26;2.83;;;2.10;;
20110;SDS011;10216;42.658;23.248;2023-04-21T03:04:51;2.97;;;2.20;;
20110;SDS011;10216;42.658;23.248;2023-04-21T03:07:17;3.67;;;1.97;;
20110;SDS011;10216;42.658;23.248;2023-04-21T03:09:42;2.60;;;1.90;;
20110;SDS011;10216;42.658;23.248;2023-04-21T03:12:07;3.23;;;2.13;;
20110;SDS011;10216;42.658;23.248;2023-04-21T03:14:32;2.77;;;1.80;;
20110;SDS011;10216;42.658;23.248;2023-04-21T03:16:58;3.43;;;1.93;;
20110;SDS011;10216;42.658;23.248;2023-04-21T03:19:23;2.10;;;2.00;;
20110;SDS011;10216;42.658;23.248;2023-04-21T03:21:48;2.40;;;2.10;;
20110;SDS011;10216;42.658;23.248;2023-04-21T03:24:13;4.03;;;2.27;;
20110;SDS011;10216;42.658;23.248;2023-04-21T03:26:39;3.57;;;2.63;;
20110;SDS011;10216;42.658;23.248;2023-04-21T03:29:05;3.10;;;2.03;;
20110;SDS011;10216;42.658;23.248;2023-04-21T03:31:30;3.80;;;2.33;;
20110;SDS011;10216;42.658;23.248;2023-04-21T03:33:55;2.53;;;2.07;;
20110;SDS011;10216;42.658;23.248;2023-04-21T03:36:21;4.63;;;2.13;;
20110;SDS011;10216;42.658;23.248;2023-04-21T03:38:46;3.10;;;2.03;;
20110;SDS011;10216;42.658;23.248;2023-04-21T03:41:11;3.13;;;1.97;;
20110;SDS011;10216;42.658;23.248;2023-04-21T03:43:37;3.10;;;2.33;;
20110;SDS011;10216;42.658;23.248;2023-04-21T03:46:02;2.53;;;2.10;;
20110;SDS011;10216;42.658;23.248;2023-04-21T03:48:27;3.93;;;2.23;;
20110;SDS011;10216;42.658;23.248;2023-04-21T03:50:53;3.07;;;2.20;;
20110;SDS011;10216;42.658;23.248;2023-04-21T03:53:18;2.77;;;2.47;;
20110;SDS011;10216;42.658;23.248;2023-04-21T03:55:44;4.20;;;1.90;;
20110;SDS011;10216;42.658;23.248;2023-04-21T03:58:12;2.40;;;1.97;;
20110;SDS011;10216;42.658;23.248;2023-04-21T04:00:38;4.00;;;2.23;;
20110;SDS011;10216;42.658;23.248;2023-04-21T04:03:03;3.47;;;2.50;;
20110;SDS011;10216;42.658;23.248;2023-04-21T04:05:28;3.43;;;2.20;;
20110;SDS011;10216;42.658;23.248;2023-04-21T04:07:53;2.53;;;1.93;;
20110;SDS011;10216;42.658;23.248;2023-04-21T04:10:19;4.30;;;2.27;;
20110;SDS011;10216;42.658;23.248;2023-04-21T04:12:44;3.60;;;2.40;;
20110;SDS011;10216;42.658;23.248;2023-04-21T04:15:10;3.27;;;2.40;;
20110;SDS011;10216;42.658;23.248;2023-04-21T04:17:35;2.93;;;2.40;;
20110;SDS011;10216;42.658;23.248;2023-04-21T04:20:00;3.67;;;2.00;;
20110;SDS011;10216;42.658;23.248;2023-04-21T04:22:28;2.40;;;2.20;;
20110;SDS011;10216;42.658;23.248;2023-04-21T04:24:53;4.70;;;2.30;;
20110;SDS011;10216;42.658;23.248;2023-04-21T04:27:19;3.33;;;2.30;;
20110;SDS011;10216;42.658;23.248;2023-04-21T04:29:44;3.70;;;2.07;;
20110;SDS011;10216;42.658;23.248;2023-04-21T04:32:10;3.67;;;2.73;;
20110;SDS011;10216;42.658;23.248;2023-04-21T04:34:35;3.33;;;2.53;;
20110;SDS011;10216;42.658;23.248;2023-04-21T04:37:01;2.53;;;2.30;;
20110;SDS011;10216;42.658;23.248;2023-04-21T04:39:27;3.40;;;2.70;;
20110;SDS011;10216;42.658;23.248;2023-04-21T04:41:53;2.33;;;2.07;;
20110;SDS011;10216;42.658;23.248;2023-04-21T04:44:18;3.77;;;2.83;;
20110;SDS011;10216;42.658;23.248;2023-04-21T04:46:43;2.97;;;2.70;;
20110;SDS011;10216;42.658;23.248;2023-04-21T04:49:09;5.67;;;3.20;;
20110;SDS011;10216;42.658;23.248;2023-04-21T04:51:34;4.10;;;2.43;;
20110;SDS011;10216;42.658;23.248;2023-04-21T04:54:00;3.67;;;2.70;;
20110;SDS011;10216;42.658;23.248;2023-04-21T04:56:25;3.63;;;2.73;;
20110;SDS011;10216;42.658;23.248;2023-04-21T04:58:50;3.17;;;2.30;;
20110;SDS011;10216;42.658;23.248;2023-04-21T05:01:15;2.87;;;2.30;;
20110;SDS011;10216;42.658;23.248;2023-04-21T05:03:41;2.80;;;2.47;;
20110;SDS011;10216;42.658;23.248;2023-04-21T05:06:06;2.50;;;2.20;;
20110;SDS011;10216;42.658;23.248;2023-04-21T05:08:32;2.87;;;2.40;;
20110;SDS011;10216;42.658;23.248;2023-04-21T05:10:57;4.83;;;2.70;;
20110;SDS011;10216;42.658;23.248;2023-04-21T05:13:22;3.47;;;2.83;;
20110;SDS011;10216;42.658;23.248;2023-04-21T05:15:48;3.90;;;2.43;;
20110;SDS011;10216;42.658;23.248;2023-04-21T05:18:15;3.10;;;2.50;;
20110;SDS011;10216;42.658;23.248;2023-04-21T05:20:40;4.33;;;1.93;;
20110;SDS011;10216;42.658;23.248;2023-04-21T05:23:06;3.57;;;2.30;;
20110;SDS011;10216;42.658;23.248;2023-04-21T05:25:31;3.43;;;2.47;;
20110;SDS011;10216;42.658;23.248;2023-04-21T05:27:56;2.83;;;2.30;;
20110;SDS011;10216;42.658;23.248;2023-04-21T05:30:22;3.73;;;2.77;;
20110;SDS011;10216;42.658;23.248;2023-04-21T05:32:47;3.23;;;2.40;;
20110;SDS011;10216;42.658;23.248;2023-04-21T05:35:12;2.63;;;2.43;;
20110;SDS011;10216;42.658;23.248;2023-04-21T05:37:37;2.60;;;2.40;;
20110;SDS011;10216;42.658;23.248;2023-04-21T05:40:03;3.77;;;2.60;;
20110;SDS011;10216;42.658;23.248;2023-04-21T05:42:28;2.57;;;2.20;;
20110;SDS011;10216;42.658;23.248;2023-04-21T05:44:53;2.77;;;2.10;;
20110;SDS011;10216;42.658;23.248;2023-04-21T05:47:19;4.00;;;2.70;;
20110;SDS011;10216;42.658;23.248;2023-04-21T05:49:44;5.00;;;2.70;;
20110;SDS011;10216;42.658;23.248;2023-04-21T05:52:14;3.47;;;2.70;;
20110;SDS011;10216;42.658;23.248;2023-04-21T05:54:40;3.00;;;2.50;;
20110;SDS011;10216;42.658;23.248;2023-04-21T05:57:06;2.20;;;2.00;;
20110;SDS011;10216;42.658;23.248;2023-04-21T05:59:32;3.97;;;2.90;;
20110;SDS011;10216;42.658;23.248;2023-04-21T06:01:57;2.37;;;2.17;;
20110;SDS011;10216;42.658;23.248;2023-04-21T06:04:23;4.87;;;3.20;;
20110;SDS011;10216;42.658;23.248;2023-04-21T06:06:48;3.87;;;2.80;;
20110;SDS011;10216;42.658;23.248;2023-04-21T06:09:13;3.40;;;2.70;;
20110;SDS011;10216;42.658;23.248;2023-04-21T06:11:40;3.23;;;2.50;;
20110;SDS011;10216;42.658;23.248;2023-04-21T06:14:05;3.83;;;2.83;;
20110;SDS011;10216;42.658;23.248;2023-04-21T06:16:31;4.17;;;2.53;;
20110;SDS011;10216;42.658;23.248;2023-04-21T06:18:58;3.07;;;2.60;;
20110;SDS011;10216;42.658;23.248;2023-04-21T06:21:23;3.80;;;2.70;;
20110;SDS011;10216;42.658;23.248;2023-04-21T06:23:48;3.07;;;2.60;;
20110;SDS011;10216;42.658;23.248;2023-04-21T06:26:14;4.07;;;2.47;;
20110;SDS011;10216;42.658;23.248;2023-04-21T06:28:39;3.90;;;2.70;;
20110;SDS011;10216;42.658;23.248;2023-04-21T06:31:04;3.67;;;2.60;;
20110;SDS011;10216;42.658;23.248;2023-04-21T06:33:30;5.17;;;2.77;;
20110;SDS011;10216;42.658;23.248;2023-04-21T06:35:56;3.70;;;2.53;;
20110;SDS011;10216;42.658;23.248;2023-04-21T06:38:21;3.60;;;2.70;;
20110;SDS011;10216;42.658;23.248;2023-04-21T06:40:49;3.23;;;2.90;;
20110;SDS011;10216;42.658;23.248;2023-04-21T06:43:14;3.33;;;2.50;;
20110;SDS011;10216;42.658;23.248;2023-04-21T06:45:40;3.83;;;2.57;;
20110;SDS011;10216;42.658;23.248;2023-04-21T06:48:05;2.87;;;2.60;;
20110;SDS011;10216;42.658;23.248;2023-04-21T06:50:30;4.27;;;2.57;;
20110;SDS011;10216;42.658;23.248;2023-04-21T06:52:56;3.17;;;2.30;;
20110;SDS011;10216;42.658;23.248;2023-04-21T06:55:21;5.33;;;2.87;;
20110;SDS011;10216;42.658;23.248;2023-04-21T06:57:46;2.97;;;2.67;;
20110;SDS011;10216;42.658;23.248;2023-04-21T07:00:12;2.60;;;2.37;;
20110;SDS011;10216;42.658;23.248;2023-04-21T07:02:37;2.57;;;2.10;;
20110;SDS011;10216;42.658;23.248;2023-04-21T07:05:03;2.60;;;2.30;;
20110;SDS011;10216;42.658;23.248;2023-04-21T07:07:28;2.83;;;2.50;;
20110;SDS011;10216;42.658;23.248;2023-04-21T07:09:53;3.23;;;2.67;;
20110;SDS011;10216;42.658;23.248;2023-04-21T07:12:19;2.67;;;2.47;;
20110;SDS011;10216;42.658;23.248;2023-04-21T07:14:44;2.40;;;2.20;;
20110;SDS011;10216;42.658;23.248;2023-04-21T07:17:09;3.07;;;2.30;;
20110;SDS011;10216;42.658;23.248;2023-04-21T07:19:35;2.00;;;1.87;;
20110;SDS011;10216;42.658;23.248;2023-04-21T07:22:01;5.20;;;2.50;;
20110;SDS011;10216;42.658;23.248;2023-04-21T07:24:26;2.73;;;2.53;;
20110;SDS011;10216;42.658;23.248;2023-04-21T07:26:51;3.03;;;2.17;;
20110;SDS011;10216;42.658;23.248;2023-04-21T07:29:16;3.20;;;2.30;;
20110;SDS011;10216;42.658;23.248;2023-04-21T07:31:42;3.57;;;2.43;;
20110;SDS011;10216;42.658;23.248;2023-04-21T07:34:13;2.83;;;2.17;;
20110;SDS011;10216;42.658;23.248;2023-04-21T07:36:38;3.13;;;2.30;;
20110;SDS011;10216;42.658;23.248;2023-04-21T07:39:03;3.43;;;2.40;;
20110;SDS011;10216;42.658;23.248;2023-04-21T07:41:29;4.50;;;2.67;;
20110;SDS011;10216;42.658;23.248;2023-04-21T07:43:54;2.27;;;2.07;;
20110;SDS011;10216;42.658;23.248;2023-04-21T07:46:19;4.20;;;2.70;;
20110;SDS011;10216;42.658;23.248;2023-04-21T07:48:46;3.80;;;2.57;;
20110;SDS011;10216;42.658;23.248;2023-04-21T07:51:12;2.30;;;2.10;;
20110;SDS011;10216;42.658;23.248;2023-04-21T07:53:37;3.60;;;2.47;;
20110;SDS011;10216;42.658;23.248;2023-04-21T07:56:02;2.23;;;2.03;;
20110;SDS011;10216;42.658;23.248;2023-04-21T07:58:28;3.00;;;2.30;;
20110;SDS011;10216;42.658;23.248;2023-04-21T08:00:53;3.30;;;2.40;;
20110;SDS011;10216;42.658;23.248;2023-04-21T08:03:18;3.37;;;2.43;;
20110;SDS011;10216;42.658;23.248;2023-04-21T08:05:44;2.47;;;2.17;;
20110;SDS011;10216;42.658;23.248;2023-04-21T08:08:09;2.90;;;2.60;;
20110;SDS011;10216;42.658;23.248;2023-04-21T08:10:34;3.63;;;2.17;;
20110;SDS011;10216;42.658;23.248;2023-04-21T08:12:59;2.70;;;1.80;;
20110;SDS011;10216;42.658;23.248;2023-04-21T08:15:25;2.20;;;2.00;;
20110;SDS011;10216;42.658;23.248;2023-04-21T08:17:52;2.30;;;2.10;;
20110;SDS011;10216;42.658;23.248;2023-04-21T08:20:18;3.83;;;2.40;;
20110;SDS011;10216;42.658;23.248;2023-04-21T08:22:44;3.10;;;2.63;;
20110;SDS011;10216;42.658;23.248;2023-04-21T08:25:09;3.87;;;3.03;;
20110;SDS011;10216;42.658;23.248;2023-04-21T08:27:37;3.40;;;2.20;;
20110;SDS011;10216;42.658;23.248;2023-04-21T08:30:03;2.47;;;2.10;;
20110;SDS011;10216;42.658;23.248;2023-04-21T08:32:29;2.80;;;2.10;;
20110;SDS011;10216;42.658;23.248;2023-04-21T08:34:55;2.50;;;2.07;;
20110;SDS011;10216;42.658;23.248;2023-04-21T08:37:20;2.30;;;2.10;;
20110;SDS011;10216;42.658;23.248;2023-04-21T08:39:46;2.60;;;2.20;;
20110;SDS011;10216;42.658;23.248;2023-04-21T08:42:12;2.93;;;2.50;;
20110;SDS011;10216;42.658;23.248;2023-04-21T08:44:39;2.20;;;2.00;;
20110;SDS011;10216;42.658;23.248;2023-04-21T08:47:05;2.63;;;2.10;;
20110;SDS011;10216;42.658;23.248;2023-04-21T08:49:32;1.97;;;1.77;;
20110;SDS011;10216;42.658;23.248;2023-04-21T08:51:58;2.87;;;2.07;;
20110;SDS011;10216;42.658;23.248;2023-04-21T08:54:24;2.30;;;2.10;;
20110;SDS011;10216;42.658;23.248;2023-04-21T08:56:49;3.17;;;2.30;;
20110;SDS011;10216;42.658;23.248;2023-04-21T08:59:15;4.23;;;2.87;;
20110;SDS011;10216;42.658;23.248;2023-04-21T09:02:49;2.73;;;2.23;;
20110;SDS011;10216;42.658;23.248;2023-04-21T09:04:44;3.50;;;2.00;;
20110;SDS011;10216;42.658;23.248;2023-04-21T09:07:10;2.93;;;2.13;;
20110;SDS011;10216;42.658;23.248;2023-04-21T09:09:56;2.30;;;2.10;;
20110;SDS011;10216;42.658;23.248;2023-04-21T09:12:22;2.30;;;2.07;;
20110;SDS011;10216;42.658;23.248;2023-04-21T09:14:47;2.40;;;2.20;;
20110;SDS011;10216;42.658;23.248;2023-04-21T09:17:14;2.37;;;2.13;;
20110;SDS011;10216;42.658;23.248;2023-04-21T09:19:40;2.77;;;2.17;;
20110;SDS011;10216;42.658;23.248;2023-04-21T09:22:05;3.37;;;2.30;;
20110;SDS011;10216;42.658;23.248;2023-04-21T09:24:30;2.50;;;1.93;;
20110;SDS011;10216;42.658;23.248;2023-04-21T09:26:56;1.50;;;1.30;;
20110;SDS011;10216;42.658;23.248;2023-04-21T09:29:24;2.33;;;2.13;;
20110;SDS011;10216;42.658;23.248;2023-04-21T09:31:49;2.30;;;2.10;;
20110;SDS011;10216;42.658;23.248;2023-04-21T09:34:25;2.20;;;2.00;;
20110;SDS011;10216;42.658;23.248;2023-04-21T09:37:00;2.70;;;2.13;;
20110;SDS011;10216;42.658;23.248;2023-04-21T09:39:25;2.13;;;1.97;;
20110;SDS011;10216;42.658;23.248;2023-04-21T09:41:51;1.90;;;1.80;;
20110;SDS011;10216;42.658;23.248;2023-04-21T09:44:17;1.87;;;1.70;;
20110;SDS011;10216;42.658;23.248;2023-04-21T09:46:43;2.30;;;2.10;;
20110;SDS011;10216;42.658;23.248;2023-04-21T09:49:09;3.57;;;2.13;;
20110;SDS011;10216;42.658;23.248;2023-04-21T09:51:37;1.97;;;1.87;;
20110;SDS011;10216;42.658;23.248;2023-04-21T09:54:06;4.43;;;2.20;;
20110;SDS011;10216;42.658;23.248;2023-04-21T09:56:33;2.27;;;1.80;;
20110;SDS011;10216;42.658;23.248;2023-04-21T09:59:00;3.00;;;2.23;;
20110;SDS011;10216;42.658;23.248;2023-04-21T10:01:29;1.83;;;1.73;;
20110;SDS011;10216;42.658;23.248;2023-04-21T10:03:54;1.97;;;1.87;;
20110;SDS011;10216;42.658;23.248;2023-04-21T10:06:20;1.70;;;1.57;;
20110;SDS011;10216;42.658;23.248;2023-04-21T10:08:45;1.37;;;1.27;;
20110;SDS011;10216;42.658;23.248;2023-04-21T10:11:11;1.27;;;1.17;;
20110;SDS011;10216;42.658;23.248;2023-04-21T10:13:37;1.70;;;1.60;;
20110;SDS011;10216;42.658;23.248;2023-04-21T10:16:06;1.50;;;1.40;;
20110;SDS011;10216;42.658;23.248;2023-04-21T10:18:42;1.87;;;1.53;;
20110;SDS011;10216;42.658;23.248;2023-04-21T10:21:09;1.50;;;1.40;;
20110;SDS011;10216;42.658;23.248;2023-04-21T10:23:38;3.13;;;1.63;;
20110;SDS011;10216;42.658;23.248;2023-04-21T10:26:05;1.70;;;1.60;;
20110;SDS011;10216;42.658;23.248;2023-04-21T10:36:29;1.77;;;1.67;;
20110;SDS011;10216;42.658;23.248;2023-04-21T10:38:55;2.23;;;2.03;;
20110;SDS011;10216;42.658;23.248;2023-04-21T10:44:01;1.50;;;1.40;;
20110;SDS011;10216;42.658;23.248;2023-04-21T10:46:47;1.67;;;1.40;;
20110;SDS011;10216;42.658;23.248;2023-04-21T10:49:28;1.60;;;1.30;;
20110;SDS011;10216;42.658;23.248;2023-04-21T10:54:28;1.60;;;1.50;;
20110;SDS011;10216;42.658;23.248;2023-04-21T10:56:54;1.70;;;1.60;;
20110;SDS011;10216;42.658;23.248;2023-04-21T10:59:19;2.17;;;1.57;;
20110;SDS011;10216;42.658;23.248;2023-04-21T11:01:45;1.83;;;1.53;;
20110;SDS011;10216;42.658;23.248;2023-04-21T11:04:13;1.83;;;1.43;;
20110;SDS011;10216;42.658;23.248;2023-04-21T11:06:41;2.77;;;1.80;;
20110;SDS011;10216;42.658;23.248;2023-04-21T11:09:07;1.77;;;1.67;;
20110;SDS011;10216;42.658;23.248;2023-04-21T11:11:33;1.40;;;1.30;;
20110;SDS011;10216;42.658;23.248;2023-04-21T11:14:00;1.57;;;1.40;;
20110;SDS011;10216;42.658;23.248;2023-04-21T11:16:25;1.80;;;1.53;;
20110;SDS011;10216;42.658;23.248;2023-04-21T11:18:51;2.00;;;1.23;;
20110;SDS011;10216;42.658;23.248;2023-04-21T11:21:16;1.60;;;1.47;;
20110;SDS011;10216;42.658;23.248;2023-04-21T11:23:49;1.77;;;1.50;;
20110;SDS011;10216;42.658;23.248;2023-04-21T11:26:14;1.40;;;1.30;;
20110;SDS011;10216;42.658;23.248;2023-04-21T11:28:40;1.40;;;1.30;;
20110;SDS011;10216;42.658;23.248;2023-04-21T11:31:08;2.37;;;1.60;;
20110;SDS011;10216;42.658;23.248;2023-04-21T11:33:37;2.43;;;1.90;;
20110;SDS011;10216;42.658;23.248;2023-04-21T11:36:05;3.10;;;1.80;;
20110;SDS011;10216;42.658;23.248;2023-04-21T11:38:38;2.30;;;2.03;;
20110;SDS011;10216;42.658;23.248;2023-04-21T11:41:04;2.63;;;1.57;;
20110;SDS011;10216;42.658;23.248;2023-04-21T11:43:29;1.60;;;1.50;;
20110;SDS011;10216;42.658;23.248;2023-04-21T11:45:54;1.83;;;1.73;;
20110;SDS011;10216;42.658;23.248;2023-04-21T11:48:20;2.67;;;1.90;;
20110;SDS011;10216;42.658;23.248;2023-04-21T11:50:46;1.50;;;1.40;;
20110;SDS011;10216;42.658;23.248;2023-04-21T11:53:12;1.53;;;1.40;;
20110;SDS011;10216;42.658;23.248;2023-04-21T11:55:40;3.37;;;2.60;;
20110;SDS011;10216;42.658;23.248;2023-04-21T11:58:06;2.30;;;2.10;;
20110;SDS011;10216;42.658;23.248;2023-04-21T12:00:31;2.53;;;1.50;;
20110;SDS011;10216;42.658;23.248;2023-04-21T12:02:57;2.40;;;1.37;;
20110;SDS011;10216;42.658;23.248;2023-04-21T12:05:22;2.30;;;2.10;;
20110;SDS011;10216;42.658;23.248;2023-04-21T12:07:48;2.43;;;1.80;;
20110;SDS011;10216;42.658;23.248;2023-04-21T12:10:16;2.00;;;1.80;;
20110;SDS011;10216;42.658;23.248;2023-04-21T12:12:42;2.63;;;1.60;;
20110;SDS011;10216;42.658;23.248;2023-04-21T12:15:08;3.53;;;1.60;;
20110;SDS011;10216;42.658;23.248;2023-04-21T12:17:35;1.53;;;1.30;;
20110;SDS011;10216;42.658;23.248;2023-04-21T12:20:03;3.37;;;1.70;;
20110;SDS011;10216;42.658;23.248;2023-04-21T12:22:32;2.07;;;1.67;;
20110;SDS011;10216;42.658;23.248;2023-04-21T12:24:57;2.10;;;1.60;;
20110;SDS011;10216;42.658;23.248;2023-04-21T12:27:22;1.80;;;1.70;;
20110;SDS011;10216;42.658;23.248;2023-04-21T12:29:48;3.40;;;2.13;;
20110;SDS011;10216;42.658;23.248;2023-04-21T12:32:13;1.87;;;1.73;;
20110;SDS011;10216;42.658;23.248;2023-04-21T12:34:39;1.40;;;1.30;;
20110;SDS011;10216;42.658;23.248;2023-04-21T12:37:04;2.27;;;1.70;;
20110;SDS011;10216;42.658;23.248;2023-04-21T12:39:30;1.50;;;1.40;;
20110;SDS011;10216;42.658;23.248;2023-04-21T12:41:55;3.20;;;1.70;;
20110;SDS011;10216;42.658;23.248;2023-04-21T12:44:21;1.50;;;1.40;;
20110;SDS011;10216;42.658;23.248;2023-04-21T12:46:46;1.50;;;1.40;;
20110;SDS011;10216;42.658;23.248;2023-04-21T12:49:13;1.40;;;1.30;;
20110;SDS011;10216;42.658;23.248;2023-04-21T12:51:39;1.20;;;1.10;;
20110;SDS011;10216;42.658;23.248;2023-04-21T12:54:07;1.73;;;1.53;;
20110;SDS011;10216;42.658;23.248;2023-04-21T12:56:32;1.67;;;1.57;;
20110;SDS011;10216;42.658;23.248;2023-04-21T12:58:58;2.07;;;1.83;;
20110;SDS011;10216;42.658;23.248;2023-04-21T13:01:23;1.63;;;1.53;;
20110;SDS011;10216;42.658;23.248;2023-04-21T13:03:48;2.10;;;1.50;;
20110;SDS011;10216;42.658;23.248;2023-04-21T13:06:14;3.37;;;1.70;;
20110;SDS011;10216;42.658;23.248;2023-04-21T13:08:39;1.70;;;1.50;;
20110;SDS011;10216;42.658;23.248;2023-04-21T13:11:04;1.80;;;1.33;;
20110;SDS011;10216;42.658;23.248;2023-04-21T13:13:30;1.93;;;1.80;;
20110;SDS011;10216;42.658;23.248;2023-04-21T13:15:55;2.37;;;1.70;;
20110;SDS011;10216;42.658;23.248;2023-04-21T13:18:20;4.70;;;1.60;;
20110;SDS011;10216;42.658;23.248;2023-04-21T13:20:46;1.50;;;1.40;;
20110;SDS011;10216;42.658;23.248;2023-04-21T13:23:11;1.30;;;1.20;;
20110;SDS011;10216;42.658;23.248;2023-04-21T13:25:38;2.17;;;1.23;;
20110;SDS011;10216;42.658;23.248;2023-04-21T13:28:03;2.23;;;1.70;;
20110;SDS011;10216;42.658;23.248;2023-04-21T13:30:31;2.17;;;1.60;;
20110;SDS011;10216;42.658;23.248;2023-04-21T13:32:57;1.50;;;1.40;;
20110;SDS011;10216;42.658;23.248;2023-04-21T13:35:22;2.20;;;1.53;;
20110;SDS011;10216;42.658;23.248;2023-04-21T13:37:47;1.63;;;1.40;;
20110;SDS011;10216;42.658;23.248;2023-04-21T13:40:14;1.37;;;1.27;;
20110;SDS011;10216;42.658;23.248;2023-04-21T13:42:39;1.50;;;1.40;;
20110;SDS011;10216;42.658;23.248;2023-04-21T13:45:04;1.53;;;1.13;;
20110;SDS011;10216;42.658;23.248;2023-04-21T13:47:30;2.13;;;1.50;;
20110;SDS011;10216;42.658;23.248;2023-04-21T13:49:56;3.20;;;1.40;;
20110;SDS011;10216;42.658;23.248;2023-04-21T13:52:21;3.40;;;1.63;;
20110;SDS011;10216;42.658;23.248;2023-04-21T13:54:46;3.70;;;1.50;;
20110;SDS011;10216;42.658;23.248;2023-04-21T13:57:12;2.97;;;1.40;;
20110;SDS011;10216;42.658;23.248;2023-04-21T13:59:37;2.17;;;1.57;;
20110;SDS011;10216;42.658;23.248;2023-04-21T14:02:02;1.80;;;1.70;;
20110;SDS011;10216;42.658;23.248;2023-04-21T14:04:28;1.53;;;1.43;;
20110;SDS011;10216;42.658;23.248;2023-04-21T14:06:53;2.07;;;1.70;;
20110;SDS011;10216;42.658;23.248;2023-04-21T14:09:19;2.50;;;1.93;;
20110;SDS011;10216;42.658;23.248;2023-04-21T14:11:45;1.73;;;1.60;;
20110;SDS011;10216;42.658;23.248;2023-04-21T14:14:10;2.87;;;1.43;;
20110;SDS011;10216;42.658;23.248;2023-04-21T14:16:35;2.00;;;1.60;;
20110;SDS011;10216;42.658;23.248;2023-04-21T14:19:01;1.70;;;1.60;;
20110;SDS011;10216;42.658;23.248;2023-04-21T14:21:26;2.50;;;1.80;;
20110;SDS011;10216;42.658;23.248;2023-04-21T14:23:51;2.63;;;1.57;;
20110;SDS011;10216;42.658;23.248;2023-04-21T14:26:17;2.20;;;1.93;;
20110;SDS011;10216;42.658;23.248;2023-04-21T14:28:42;1.67;;;1.57;;
20110;SDS011;10216;42.658;23.248;2023-04-21T14:31:08;2.00;;;1.70;;
20110;SDS011;10216;42.658;23.248;2023-04-21T14:33:33;1.73;;;1.63;;
20110;SDS011;10216;42.658;23.248;2023-04-21T14:35:59;2.37;;;1.63;;
20110;SDS011;10216;42.658;23.248;2023-04-21T14:38:24;1.50;;;1.40;;